createdAt,value
2023-05-13T00:00:40.394Z,11.18
2023-05-13T00:01:41.949Z,11.01
2023-05-13T00:02:44.521Z,11.38
2023-05-13T00:03:46.277Z,11.24
2023-05-13T00:04:48.818Z,11.47
2023-05-13T00:05:50.334Z,11.69
2023-05-13T00:06:52.813Z,11.91
2023-05-13T00:07:54.356Z,12.03
2023-05-13T00:08:58.100Z,12.07
2023-05-13T00:09:59.608Z,12.02
2023-05-13T00:11:02.489Z,11.93
2023-05-13T00:12:04.595Z,11.79
2023-05-13T00:13:07.115Z,11.42
2023-05-13T00:14:10.830Z,11.18
2023-05-13T00:15:13.334Z,10.98
2023-05-13T00:16:14.914Z,10.91
2023-05-13T00:17:17.369Z,11.25
2023-05-13T00:18:18.948Z,11.49
2023-05-13T00:19:21.574Z,11.27
2023-05-13T00:20:23.600Z,11.22
2023-05-13T00:21:26.194Z,11.28
2023-05-13T00:22:27.691Z,11.40
2023-05-13T00:23:30.086Z,11.54
2023-05-13T00:24:32.964Z,11.64
2023-05-13T00:25:35.612Z,11.86
2023-05-13T00:26:37.129Z,12.05
2023-05-13T00:27:39.658Z,12.05
2023-05-13T00:28:43.740Z,12.05
2023-05-13T00:29:46.425Z,11.98
2023-05-13T00:30:49.184Z,11.86
2023-05-13T00:31:52.204Z,11.64
2023-05-13T00:32:53.730Z,11.73
2023-05-13T00:33:56.231Z,11.93
2023-05-13T00:34:57.762Z,12.07
2023-05-13T00:36:00.190Z,12.15
2023-05-13T00:37:01.666Z,12.23
2023-05-13T00:38:04.141Z,12.15
2023-05-13T00:39:05.672Z,12.29
2023-05-13T00:40:17.967Z,12.10
2023-05-13T00:41:21.701Z,11.57
2023-05-13T00:42:23.568Z,10.68
2023-05-13T00:43:26.094Z,10.35
2023-05-13T00:44:27.948Z,10.09
2023-05-13T00:45:30.786Z,10.09
2023-05-13T00:46:33.110Z,10.20
2023-05-13T00:47:35.673Z,10.46
2023-05-13T00:48:38.402Z,10.41
2023-05-13T00:49:41.110Z,10.16
2023-05-13T00:50:44.596Z,9.89
2023-05-13T00:51:47.351Z,10.05
2023-05-13T00:52:50.694Z,10.16
2023-05-13T00:53:53.463Z,10.14
2023-05-13T00:54:54.988Z,10.09
2023-05-13T00:55:58.786Z,10.20
2023-05-13T00:57:00.602Z,10.38
2023-05-13T00:58:03.027Z,10.26
2023-05-13T00:59:04.687Z,10.10
2023-05-13T01:00:08.606Z,10.19
2023-05-13T01:01:17.556Z,10.56
2023-05-13T01:02:28.334Z,10.89
2023-05-13T01:03:34.416Z,11.02
2023-05-13T01:04:45.427Z,11.17
2023-05-13T01:05:52.454Z,11.31
2023-05-13T01:07:07.003Z,11.37
2023-05-13T01:08:17.935Z,10.93
2023-05-13T01:09:28.284Z,10.79
2023-05-13T01:10:36.571Z,10.92
2023-05-13T01:11:42.519Z,10.06
2023-05-13T01:12:46.316Z,9.66
2023-05-13T01:13:52.116Z,9.59
2023-05-13T01:14:59.574Z,10.00
2023-05-13T01:16:07.805Z,10.38
2023-05-13T01:17:15.568Z,10.63
2023-05-13T01:18:24.468Z,10.49
2023-05-13T01:19:38.444Z,10.46
2023-05-13T01:20:43.633Z,10.39
2023-05-13T01:21:52.919Z,10.27
2023-05-13T01:22:56.606Z,10.35
2023-05-13T01:23:58.103Z,10.62
2023-05-13T01:25:01.197Z,10.88
2023-05-13T01:26:02.701Z,10.89
2023-05-13T01:27:05.755Z,10.83
2023-05-13T01:28:08.143Z,10.89
2023-05-13T01:29:10.620Z,10.75
2023-05-13T01:30:13.118Z,9.95
2023-05-13T01:31:16.391Z,9.46
2023-05-13T01:32:18.890Z,9.48
2023-05-13T01:33:21.625Z,9.65
2023-05-13T01:34:24.977Z,9.64
2023-05-13T01:35:29.408Z,9.79
2023-05-13T01:36:32.109Z,9.53
2023-05-13T01:37:37.565Z,9.22
2023-05-13T01:38:40.106Z,9.29
2023-05-13T01:39:43.408Z,9.32
2023-05-13T01:40:46.232Z,9.45
2023-05-13T01:41:48.668Z,9.30
2023-05-13T01:42:50.207Z,9.36
2023-05-13T01:43:52.677Z,9.38
2023-05-13T01:44:54.213Z,9.67
2023-05-13T01:46:00.297Z,9.74
2023-05-13T01:47:01.852Z,9.59
2023-05-13T01:48:04.681Z,9.62
2023-05-13T01:49:08.999Z,9.54
2023-05-13T01:50:12.045Z,9.31
2023-05-13T01:51:13.553Z,9.06
2023-05-13T01:52:16.035Z,8.87
2023-05-13T01:53:19.051Z,8.77
2023-05-13T01:54:21.547Z,8.90
2023-05-13T01:55:23.085Z,9.13
2023-05-13T01:56:26.113Z,9.31
2023-05-13T01:57:27.582Z,9.40
2023-05-13T01:58:30.087Z,9.23
2023-05-13T01:59:31.649Z,9.29
2023-05-13T02:00:34.057Z,9.05
2023-05-13T02:01:35.797Z,9.28
2023-05-13T02:02:38.843Z,9.10
2023-05-13T02:03:40.485Z,8.96
2023-05-13T02:04:42.957Z,8.88
2023-05-13T02:05:45.764Z,9.09
2023-05-13T02:06:48.576Z,9.11
2023-05-13T02:07:50.053Z,9.16
2023-05-13T02:08:53.816Z,9.04
2023-05-13T02:09:59.551Z,9.08
2023-05-13T02:11:02.057Z,9.02
2023-05-13T02:12:04.155Z,8.94
2023-05-13T02:13:06.624Z,9.08
2023-05-13T02:14:08.194Z,9.00
2023-05-13T02:15:11.533Z,9.24
2023-05-13T02:16:15.024Z,9.58
2023-05-13T02:17:17.490Z,9.69
2023-05-13T02:18:19.019Z,10.02
2023-05-13T02:19:21.652Z,10.25
2023-05-13T02:20:23.391Z,10.25
2023-05-13T02:21:26.072Z,10.19
2023-05-13T02:22:27.685Z,10.48
2023-05-13T02:23:30.102Z,10.22
2023-05-13T02:24:34.158Z,9.98
2023-05-13T02:25:36.607Z,9.96
2023-05-13T02:26:38.259Z,9.96
2023-05-13T02:27:40.886Z,9.97
2023-05-13T02:28:42.389Z,9.99
2023-05-13T02:29:44.798Z,9.80
2023-05-13T02:30:46.379Z,9.89
2023-05-13T02:31:48.853Z,10.22
2023-05-13T02:32:50.372Z,10.49
2023-05-13T02:33:52.805Z,10.68
2023-05-13T02:34:54.267Z,10.57
2023-05-13T02:35:56.836Z,10.58
2023-05-13T02:36:58.347Z,10.50
2023-05-13T02:38:00.791Z,10.48
2023-05-13T02:39:02.322Z,10.66
2023-05-13T02:40:07.423Z,10.65
2023-05-13T02:41:08.904Z,10.72
2023-05-13T02:42:11.681Z,10.74
2023-05-13T02:43:13.159Z,10.32
2023-05-13T02:44:15.593Z,9.68
2023-05-13T02:45:17.146Z,9.52
2023-05-13T02:46:19.683Z,9.54
2023-05-13T02:47:21.287Z,9.77
2023-05-13T02:48:23.822Z,10.04
2023-05-13T02:49:25.282Z,10.31
2023-05-13T02:50:27.718Z,10.54
2023-05-13T02:51:29.336Z,10.65
2023-05-13T02:52:31.775Z,10.41
2023-05-13T02:53:33.336Z,10.04
2023-05-13T02:54:35.805Z,9.76
2023-05-13T02:55:38.668Z,9.68
2023-05-13T02:56:41.060Z,9.46
2023-05-13T02:57:43.235Z,9.53
2023-05-13T02:58:45.737Z,9.78
2023-05-13T02:59:47.311Z,9.95
2023-05-13T03:00:52.719Z,10.24
2023-05-13T03:01:54.209Z,10.33
2023-05-13T03:02:57.593Z,10.36
2023-05-13T03:03:59.214Z,10.52
2023-05-13T03:05:01.822Z,10.74
2023-05-13T03:06:03.582Z,10.87
2023-05-13T03:07:06.132Z,10.97
2023-05-13T03:08:07.772Z,10.69
2023-05-13T03:09:10.273Z,10.53
2023-05-13T03:10:11.810Z,10.64
2023-05-13T03:11:15.524Z,10.69
2023-05-13T03:12:17.139Z,10.92
2023-05-13T03:13:19.574Z,11.12
2023-05-13T03:14:23.115Z,11.28
2023-05-13T03:15:25.592Z,11.13
2023-05-13T03:16:27.134Z,11.04
2023-05-13T03:17:30.862Z,10.65
2023-05-13T03:18:32.824Z,10.04
2023-05-13T03:19:37.121Z,9.65
2023-05-13T03:20:38.686Z,9.72
2023-05-13T03:21:41.144Z,9.82
2023-05-13T03:22:42.697Z,9.88
2023-05-13T03:23:45.336Z,9.93
2023-05-13T03:24:46.801Z,10.05
2023-05-13T03:25:49.344Z,10.29
2023-05-13T03:26:52.213Z,10.52
2023-05-13T03:27:55.389Z,10.72
2023-05-13T03:28:56.931Z,10.67
2023-05-13T03:29:59.392Z,10.68
2023-05-13T03:31:00.909Z,10.85
2023-05-13T03:32:06.422Z,10.94
2023-05-13T03:33:09.311Z,10.75
2023-05-13T03:34:11.816Z,10.55
2023-05-13T03:35:13.454Z,10.83
2023-05-13T03:36:15.882Z,11.05
2023-05-13T03:37:17.662Z,10.87
2023-05-13T03:38:20.081Z,10.90
2023-05-13T03:39:21.850Z,10.29
2023-05-13T03:40:24.387Z,9.65
2023-05-13T03:41:25.943Z,9.45
2023-05-13T03:42:30.629Z,9.40
2023-05-13T03:43:32.562Z,9.49
2023-05-13T03:44:35.295Z,9.69
2023-05-13T03:45:36.848Z,10.11
2023-05-13T03:46:39.320Z,10.28
2023-05-13T03:47:40.910Z,10.40
2023-05-13T03:48:43.889Z,10.44
2023-05-13T03:49:47.949Z,10.07
2023-05-13T03:50:50.566Z,9.98
2023-05-13T03:51:52.055Z,9.87
2023-05-13T03:52:54.447Z,9.98
2023-05-13T03:53:56.282Z,9.80
2023-05-13T03:54:58.736Z,9.66
2023-05-13T03:56:00.276Z,9.83
2023-05-13T03:57:02.810Z,9.62
2023-05-13T03:58:13.360Z,9.66
2023-05-13T03:59:15.752Z,9.87
2023-05-13T04:00:17.530Z,9.99
2023-05-13T04:01:20.192Z,10.17
2023-05-13T04:02:22.699Z,10.50
2023-05-13T04:03:25.513Z,10.70
2023-05-13T04:04:27.241Z,10.83
2023-05-13T04:05:29.669Z,10.94
2023-05-13T04:06:31.829Z,11.04
2023-05-13T04:07:34.361Z,11.16
2023-05-13T04:08:35.935Z,10.52
2023-05-13T04:09:38.405Z,10.28
2023-05-13T04:10:40.062Z,10.25
2023-05-13T04:11:42.512Z,10.33
2023-05-13T04:12:44.064Z,10.21
2023-05-13T04:13:47.886Z,10.15
2023-05-13T04:14:49.370Z,10.06
2023-05-13T04:15:51.937Z,10.06
2023-05-13T04:16:53.534Z,9.89
2023-05-13T04:17:56.096Z,10.26
2023-05-13T04:18:58.721Z,10.58
2023-05-13T04:20:07.685Z,10.87
2023-05-13T04:21:11.340Z,10.76
2023-05-13T04:22:12.815Z,10.79
2023-05-13T04:23:15.249Z,10.28
2023-05-13T04:24:16.798Z,10.23
2023-05-13T04:25:19.315Z,9.81
2023-05-13T04:26:21.964Z,9.62
2023-05-13T04:27:24.586Z,9.61
2023-05-13T04:28:26.129Z,9.71
2023-05-13T04:29:30.101Z,9.93
2023-05-13T04:30:31.772Z,10.06
2023-05-13T04:31:34.260Z,9.95
2023-05-13T04:32:36.214Z,10.13
2023-05-13T04:33:38.703Z,10.49
2023-05-13T04:34:40.192Z,10.79
2023-05-13T04:35:42.613Z,10.77
2023-05-13T04:36:44.129Z,10.75
2023-05-13T04:37:46.595Z,10.98
2023-05-13T04:38:48.072Z,11.02
2023-05-13T04:39:50.548Z,11.20
2023-05-13T04:40:52.453Z,11.40
2023-05-13T04:41:55.147Z,11.59
2023-05-13T04:42:56.744Z,11.73
2023-05-13T04:43:59.202Z,11.79
2023-05-13T04:45:02.347Z,11.85
2023-05-13T04:46:05.045Z,11.86
2023-05-13T04:47:07.054Z,11.95
2023-05-13T04:48:09.665Z,12.06
2023-05-13T04:49:11.262Z,12.05
2023-05-13T04:50:14.007Z,12.12
2023-05-13T04:51:16.868Z,12.15
2023-05-13T04:52:19.691Z,12.14
2023-05-13T04:53:22.135Z,12.15
2023-05-13T04:54:23.916Z,12.26
2023-05-13T04:55:27.665Z,12.28
2023-05-13T04:56:29.440Z,12.25
2023-05-13T04:57:32.617Z,12.24
2023-05-13T04:58:34.066Z,12.28
2023-05-13T04:59:36.489Z,12.40
2023-05-13T05:00:39.278Z,12.35
2023-05-13T05:01:42.087Z,12.44
2023-05-13T05:02:43.755Z,12.40
2023-05-13T05:03:46.175Z,12.37
2023-05-13T05:04:49.333Z,12.33
2023-05-13T05:05:51.827Z,12.47
2023-05-13T05:06:53.297Z,12.49
2023-05-13T05:07:55.935Z,12.38
2023-05-13T05:08:57.426Z,12.57
2023-05-13T05:09:59.867Z,12.70
2023-05-13T05:11:01.583Z,12.47
2023-05-13T05:12:04.741Z,12.24
2023-05-13T05:13:06.456Z,12.36
2023-05-13T05:14:08.837Z,12.60
2023-05-13T05:15:15.561Z,12.58
2023-05-13T05:16:19.415Z,12.72
2023-05-13T05:17:21.046Z,12.75
2023-05-13T05:18:23.579Z,13.00
2023-05-13T05:19:25.112Z,13.09
2023-05-13T05:20:27.600Z,13.24
2023-05-13T05:21:29.079Z,13.40
2023-05-13T05:22:31.493Z,13.39
2023-05-13T05:23:32.954Z,13.21
2023-05-13T05:24:35.526Z,13.13
2023-05-13T05:25:37.048Z,13.11
2023-05-13T05:26:41.138Z,13.02
2023-05-13T05:27:44.251Z,13.19
2023-05-13T05:28:47.184Z,13.36
2023-05-13T05:29:48.656Z,13.39
2023-05-13T05:30:51.167Z,13.57
2023-05-13T05:31:54.048Z,13.60
2023-05-13T05:32:56.595Z,13.47
2023-05-13T05:33:59.045Z,13.49
2023-05-13T05:35:03.800Z,13.47
2023-05-13T05:36:06.160Z,13.59
2023-05-13T05:37:08.574Z,13.60
2023-05-13T05:38:11.609Z,13.72
2023-05-13T05:39:13.981Z,13.80
2023-05-13T05:40:15.510Z,13.87
2023-05-13T05:41:18.000Z,13.66
2023-05-13T05:42:19.503Z,13.19
2023-05-13T05:43:21.952Z,13.30
2023-05-13T05:44:24.440Z,13.52
2023-05-13T05:45:26.062Z,13.67
2023-05-13T05:46:28.561Z,13.88
2023-05-13T05:47:31.429Z,13.10
2023-05-13T05:48:34.707Z,12.96
2023-05-13T05:49:36.481Z,13.24
2023-05-13T05:50:38.901Z,13.50
2023-05-13T05:51:40.374Z,13.77
2023-05-13T05:52:42.796Z,13.90
2023-05-13T05:53:44.421Z,14.10
2023-05-13T05:54:46.826Z,14.18
2023-05-13T05:55:48.336Z,14.28
2023-05-13T05:56:50.774Z,14.38
2023-05-13T05:57:52.199Z,14.49
2023-05-13T05:58:54.623Z,14.56
2023-05-13T05:59:56.064Z,14.72
2023-05-13T06:01:00.532Z,14.64
2023-05-13T06:02:03.029Z,14.59
2023-05-13T06:03:06.215Z,14.41
2023-05-13T06:04:09.082Z,14.47
2023-05-13T06:05:10.741Z,14.42
2023-05-13T06:06:13.190Z,14.49
2023-05-13T06:07:14.764Z,14.45
2023-05-13T06:08:17.230Z,14.51
2023-05-13T06:09:18.668Z,14.63
2023-05-13T06:10:21.532Z,14.67
2023-05-13T06:11:23.394Z,14.80
2023-05-13T06:12:26.020Z,14.90
2023-05-13T06:13:27.640Z,14.99
2023-05-13T06:14:30.020Z,14.99
2023-05-13T06:15:31.599Z,15.01
2023-05-13T06:16:34.169Z,15.04
2023-05-13T06:17:35.846Z,15.09
2023-05-13T06:18:39.870Z,15.07
2023-05-13T06:19:42.554Z,15.19
2023-05-13T06:20:44.998Z,15.30
2023-05-13T06:21:46.585Z,15.41
2023-05-13T06:22:49.119Z,15.40
2023-05-13T06:23:51.035Z,15.36
2023-05-13T06:24:53.462Z,15.40
2023-05-13T06:25:55.194Z,15.50
2023-05-13T06:26:57.638Z,15.41
2023-05-13T06:28:01.418Z,15.46
2023-05-13T06:29:05.221Z,15.60
2023-05-13T06:30:07.692Z,15.55
2023-05-13T06:31:10.193Z,15.59
2023-05-13T06:32:11.783Z,15.68
2023-05-13T06:33:14.411Z,15.77
2023-05-13T06:34:18.145Z,15.46
2023-05-13T06:35:19.595Z,14.90
2023-05-13T06:36:22.084Z,14.82
2023-05-13T06:37:23.701Z,14.95
2023-05-13T06:38:26.157Z,15.21
2023-05-13T06:39:27.609Z,15.34
2023-05-13T06:40:30.041Z,15.36
2023-05-13T06:41:31.540Z,15.54
2023-05-13T06:42:33.938Z,15.65
2023-05-13T06:43:35.449Z,15.81
2023-05-13T06:44:38.626Z,15.93
2023-05-13T06:45:40.178Z,15.94
2023-05-13T06:46:42.628Z,16.09
2023-05-13T06:47:44.127Z,15.99
2023-05-13T06:48:46.566Z,15.97
2023-05-13T06:49:49.405Z,16.00
2023-05-13T06:50:51.841Z,16.12
2023-05-13T06:51:53.296Z,16.28
2023-05-13T06:52:55.790Z,16.15
2023-05-13T06:53:57.256Z,16.05
2023-05-13T06:55:00.338Z,16.18
2023-05-13T06:56:01.837Z,16.33
2023-05-13T06:57:05.613Z,16.38
2023-05-13T06:58:08.231Z,16.32
2023-05-13T06:59:11.909Z,16.44
2023-05-13T07:00:14.078Z,16.55
2023-05-13T07:01:16.793Z,16.71
2023-05-13T07:02:18.369Z,16.78
2023-05-13T07:03:20.886Z,16.94
2023-05-13T07:04:22.399Z,16.98
2023-05-13T07:05:27.199Z,17.06
2023-05-13T07:06:28.671Z,17.10
2023-05-13T07:07:31.190Z,17.20
2023-05-13T07:08:33.836Z,17.29
2023-05-13T07:09:35.411Z,17.30
2023-05-13T07:10:37.903Z,17.39
2023-05-13T07:11:39.949Z,17.35
2023-05-13T07:12:42.411Z,17.45
2023-05-13T07:13:44.366Z,17.48
2023-05-13T07:14:47.469Z,17.38
2023-05-13T07:15:50.081Z,17.22
2023-05-13T07:16:51.666Z,17.19
2023-05-13T07:17:54.096Z,17.14
2023-05-13T07:18:55.716Z,17.08
2023-05-13T07:19:58.200Z,17.33
2023-05-13T07:21:01.122Z,17.41
2023-05-13T07:22:03.579Z,17.43
2023-05-13T07:23:05.114Z,17.28
2023-05-13T07:24:07.772Z,17.19
2023-05-13T07:25:10.785Z,17.13
2023-05-13T07:26:13.455Z,16.96
2023-05-13T07:27:14.945Z,16.74
2023-05-13T07:28:17.384Z,16.68
2023-05-13T07:29:18.861Z,16.63
2023-05-13T07:30:21.746Z,16.74
2023-05-13T07:31:24.363Z,16.65
2023-05-13T07:32:25.936Z,16.46
2023-05-13T07:33:28.592Z,16.47
2023-05-13T07:34:30.049Z,16.80
2023-05-13T07:35:32.576Z,16.94
2023-05-13T07:36:35.396Z,16.75
2023-05-13T07:37:37.911Z,16.66
2023-05-13T07:38:39.379Z,16.70
2023-05-13T07:39:41.748Z,16.61
2023-05-13T07:40:43.212Z,16.61
2023-05-13T07:41:45.615Z,16.59
2023-05-13T07:42:47.099Z,16.76
2023-05-13T07:43:49.510Z,16.61
2023-05-13T07:44:50.951Z,16.63
2023-05-13T07:45:53.408Z,16.65
2023-05-13T07:46:54.929Z,16.67
2023-05-13T07:47:57.568Z,17.03
2023-05-13T07:48:59.030Z,17.02
2023-05-13T07:50:01.492Z,17.24
2023-05-13T07:51:03.272Z,17.41
2023-05-13T07:52:07.643Z,17.35
2023-05-13T07:53:09.193Z,17.33
2023-05-13T07:54:11.623Z,17.24
2023-05-13T07:55:13.081Z,17.19
2023-05-13T07:56:15.631Z,17.31
2023-05-13T07:57:17.192Z,17.58
2023-05-13T07:58:20.196Z,17.78
2023-05-13T07:59:22.621Z,17.93
2023-05-13T08:00:24.250Z,16.97
2023-05-13T08:01:27.203Z,16.27
2023-05-13T08:02:34.597Z,16.40
2023-05-13T08:03:37.400Z,16.70
2023-05-13T08:04:39.097Z,16.83
2023-05-13T08:05:41.672Z,17.07
2023-05-13T08:06:43.443Z,17.14
2023-05-13T08:07:47.182Z,16.61
2023-05-13T08:08:48.672Z,16.70
2023-05-13T08:09:51.181Z,16.98
2023-05-13T08:10:52.665Z,17.12
2023-05-13T08:11:55.292Z,17.29
2023-05-13T08:12:57.881Z,17.38
2023-05-13T08:14:00.383Z,17.36
2023-05-13T08:15:03.911Z,17.56
2023-05-13T08:16:09.237Z,17.22
2023-05-13T08:17:10.732Z,17.09
2023-05-13T08:18:13.150Z,16.81
2023-05-13T08:19:15.454Z,17.06
2023-05-13T08:20:17.949Z,17.32
2023-05-13T08:21:20.395Z,17.40
2023-05-13T08:22:21.887Z,17.66
2023-05-13T08:23:36.835Z,17.53
2023-05-13T08:24:46.988Z,17.43
2023-05-13T08:25:48.694Z,17.57
2023-05-13T08:26:51.319Z,17.79
2023-05-13T08:27:52.825Z,17.85
2023-05-13T08:28:57.082Z,17.78
2023-05-13T08:29:59.609Z,17.04
2023-05-13T08:31:03.265Z,17.20
2023-05-13T08:32:06.630Z,17.52
2023-05-13T08:33:08.409Z,17.87
2023-05-13T08:34:11.052Z,17.74
2023-05-13T08:35:12.590Z,17.55
2023-05-13T08:36:15.458Z,17.41
2023-05-13T08:37:17.106Z,17.50
2023-05-13T08:38:19.651Z,17.77
2023-05-13T08:39:22.774Z,18.11
2023-05-13T08:40:25.362Z,18.32
2023-05-13T08:41:28.013Z,18.56
2023-05-13T08:42:33.318Z,18.50
2023-05-13T08:43:37.140Z,18.41
2023-05-13T08:44:42.986Z,18.61
2023-05-13T08:45:46.365Z,18.71
2023-05-13T08:46:59.562Z,18.54
2023-05-13T08:48:02.612Z,18.75
2023-05-13T08:49:05.767Z,18.93
2023-05-13T08:50:08.084Z,18.82
2023-05-13T08:51:10.649Z,18.97
2023-05-13T08:52:12.228Z,18.90
2023-05-13T08:53:14.699Z,19.03
2023-05-13T08:54:16.897Z,19.19
2023-05-13T08:55:21.390Z,19.06
2023-05-13T08:56:25.628Z,18.92
2023-05-13T08:57:28.234Z,19.05
2023-05-13T08:58:29.792Z,19.24
2023-05-13T08:59:32.270Z,19.36
2023-05-13T09:00:34.639Z,19.23
2023-05-13T09:01:37.486Z,19.22
2023-05-13T09:02:39.118Z,19.17
2023-05-13T09:03:53.291Z,19.10
2023-05-13T09:04:55.959Z,19.23
2023-05-13T09:06:01.529Z,19.45
2023-05-13T09:07:03.970Z,19.26
2023-05-13T09:08:09.501Z,19.26
2023-05-13T09:09:12.051Z,19.17
2023-05-13T09:10:13.582Z,19.25
2023-05-13T09:11:17.581Z,19.29
2023-05-13T09:12:42.555Z,19.39
2023-05-13T09:13:45.429Z,19.46
2023-05-13T09:14:46.953Z,19.24
2023-05-13T09:15:51.440Z,19.45
2023-05-13T09:16:56.934Z,19.35
2023-05-13T09:18:01.675Z,19.28
2023-05-13T09:19:04.560Z,19.31
2023-05-13T09:20:12.088Z,19.39
2023-05-13T09:21:24.629Z,19.28
2023-05-13T09:22:27.120Z,18.86
2023-05-13T09:23:29.267Z,18.71
2023-05-13T09:24:31.709Z,18.96
2023-05-13T09:25:33.590Z,19.14
2023-05-13T09:26:37.774Z,19.15
2023-05-13T09:27:42.181Z,19.32
2023-05-13T09:28:44.575Z,19.38
2023-05-13T09:29:49.622Z,19.35
2023-05-13T09:30:56.737Z,19.33
2023-05-13T09:31:59.768Z,19.53
2023-05-13T09:33:08.092Z,19.70
2023-05-13T09:34:09.755Z,19.59
2023-05-13T09:35:17.633Z,19.52
2023-05-13T09:36:19.109Z,19.47
2023-05-13T09:37:25.201Z,19.79
2023-05-13T09:38:31.501Z,19.75
2023-05-13T09:39:34.669Z,19.98
2023-05-13T09:40:39.070Z,19.98
2023-05-13T09:41:42.512Z,19.79
2023-05-13T09:42:46.209Z,19.80
2023-05-13T09:43:48.109Z,19.83
2023-05-13T09:44:50.727Z,19.86
2023-05-13T09:45:53.280Z,20.03
2023-05-13T09:46:55.866Z,20.14
2023-05-13T09:47:57.480Z,20.29
2023-05-13T09:48:59.974Z,20.30
2023-05-13T09:50:03.071Z,20.61
2023-05-13T09:51:06.123Z,20.74
2023-05-13T09:52:11.287Z,20.66
2023-05-13T09:53:13.798Z,20.68
2023-05-13T09:54:16.337Z,20.70
2023-05-13T09:55:18.733Z,20.34
2023-05-13T09:56:23.867Z,20.39
2023-05-13T09:57:29.672Z,20.53
2023-05-13T09:58:32.198Z,19.74
2023-05-13T09:59:34.157Z,19.92
2023-05-13T10:01:40.468Z,20.19
2023-05-13T10:02:43.432Z,20.44
2023-05-13T10:03:45.680Z,20.68
2023-05-13T10:04:48.432Z,20.73
2023-05-13T10:05:51.227Z,20.95
2023-05-13T10:06:54.694Z,20.76
2023-05-13T10:07:56.981Z,20.54
2023-05-13T10:09:01.348Z,20.80
2023-05-13T10:10:04.396Z,20.98
2023-05-13T10:11:07.811Z,21.29
2023-05-13T10:12:13.877Z,21.25
2023-05-13T10:13:21.253Z,21.08
2023-05-13T10:14:23.923Z,21.01
2023-05-13T10:15:26.145Z,20.59
2023-05-13T10:16:29.892Z,20.74
2023-05-13T10:17:32.522Z,21.43
2023-05-13T10:18:35.357Z,22.21
2023-05-13T10:19:37.763Z,22.96
2023-05-13T10:20:40.621Z,23.32
2023-05-13T10:21:42.351Z,24.05
2023-05-13T10:22:45.055Z,23.95
2023-05-13T10:23:47.612Z,23.99
2023-05-13T10:24:50.762Z,24.27
2023-05-13T10:25:54.758Z,24.11
2023-05-13T10:26:57.521Z,23.81
2023-05-13T10:28:03.717Z,23.95
2023-05-13T10:29:07.002Z,24.35
2023-05-13T10:30:10.509Z,24.39
2023-05-13T10:31:12.021Z,24.67
2023-05-13T10:32:15.626Z,24.81
2023-05-13T10:33:17.568Z,25.02
2023-05-13T10:34:20.682Z,25.12
2023-05-13T10:35:27.823Z,25.16
2023-05-13T10:36:42.413Z,25.39
2023-05-13T10:38:08.529Z,23.50
2023-05-13T10:39:32.255Z,23.89
2023-05-13T10:41:09.404Z,23.77
2023-05-13T10:42:37.904Z,23.16
2023-05-13T10:43:41.125Z,24.64
2023-05-13T10:44:43.987Z,24.13
2023-05-13T10:45:48.178Z,23.54
2023-05-13T10:46:50.158Z,22.30
2023-05-13T10:47:52.802Z,23.12
2023-05-13T10:48:57.067Z,24.11
2023-05-13T10:50:04.504Z,24.86
2023-05-13T10:51:07.988Z,26.00
2023-05-13T10:52:14.367Z,26.29
2023-05-13T10:53:21.171Z,26.16
2023-05-13T10:54:24.763Z,26.82
2023-05-13T10:55:28.457Z,26.48
2023-05-13T10:56:29.965Z,25.12
2023-05-13T10:57:37.327Z,24.52
2023-05-13T10:58:40.027Z,24.82
2023-05-13T11:00:11.985Z,24.59
2023-05-13T11:01:17.562Z,25.62
2023-05-13T11:02:23.302Z,26.00
2023-05-13T11:03:30.866Z,25.90
2023-05-13T11:04:32.456Z,25.70
2023-05-13T11:05:34.918Z,26.24
2023-05-13T11:06:39.335Z,26.52
2023-05-13T11:07:40.875Z,25.96
2023-05-13T11:08:44.886Z,26.59
2023-05-13T11:09:50.918Z,25.61
2023-05-13T11:10:54.871Z,25.67
2023-05-13T11:11:59.178Z,25.30
2023-05-13T11:13:21.814Z,24.67
2023-05-13T11:14:25.520Z,24.99
2023-05-13T11:15:43.854Z,25.36
2023-05-13T11:16:47.998Z,25.69
2023-05-13T11:17:53.366Z,24.31
2023-05-13T11:18:56.093Z,23.35
2023-05-13T11:19:58.215Z,22.76
2023-05-13T11:21:05.390Z,22.38
2023-05-13T11:22:10.655Z,22.77
2023-05-13T11:23:17.431Z,22.48
2023-05-13T11:24:21.357Z,22.55
2023-05-13T11:25:27.064Z,22.01
2023-05-13T11:26:44.765Z,21.28
2023-05-13T11:27:47.674Z,21.07
2023-05-13T11:28:58.823Z,21.38
2023-05-13T11:30:01.295Z,22.05
2023-05-13T11:31:17.209Z,22.75
2023-05-13T11:32:54.147Z,23.37
2023-05-13T11:34:09.916Z,24.20
2023-05-13T11:35:12.750Z,24.51
2023-05-13T11:36:14.392Z,23.82
2023-05-13T11:37:16.885Z,23.60
2023-05-13T11:38:23.546Z,23.02
2023-05-13T11:39:27.453Z,23.59
2023-05-13T11:40:30.480Z,23.64
2023-05-13T11:41:33.449Z,23.66
2023-05-13T11:42:37.250Z,23.75
2023-05-13T11:43:40.014Z,23.33
2023-05-13T11:44:47.040Z,23.59
2023-05-13T11:45:49.665Z,23.42
2023-05-13T11:46:58.020Z,22.92
2023-05-13T11:48:18.043Z,22.54
2023-05-13T11:49:37.153Z,21.81
2023-05-13T11:50:39.619Z,21.81
2023-05-13T11:51:41.424Z,22.38
2023-05-13T11:52:44.194Z,22.35
2023-05-13T11:53:45.908Z,23.16
2023-05-13T11:54:50.043Z,24.31
2023-05-13T11:55:51.594Z,24.85
2023-05-13T11:56:54.159Z,25.12
2023-05-13T11:57:56.924Z,25.94
2023-05-13T11:59:14.530Z,26.99
2023-05-13T12:00:17.654Z,26.40
2023-05-13T12:01:19.295Z,25.84
2023-05-13T12:02:23.926Z,26.06
2023-05-13T12:03:28.959Z,25.62
2023-05-13T12:04:30.904Z,25.01
2023-05-13T12:05:33.394Z,24.61
2023-05-13T12:06:35.328Z,25.10
2023-05-13T12:07:39.415Z,24.87
2023-05-13T12:08:44.047Z,25.62
2023-05-13T12:09:46.455Z,25.76
2023-05-13T12:10:49.181Z,25.40
2023-05-13T12:11:51.236Z,24.77
2023-05-13T12:12:54.084Z,25.15
2023-05-13T12:13:55.946Z,25.33
2023-05-13T12:15:01.157Z,24.16
2023-05-13T12:16:03.169Z,23.75
2023-05-13T12:17:06.072Z,24.48
2023-05-13T12:18:09.965Z,24.68
2023-05-13T12:19:11.626Z,23.89
2023-05-13T12:20:15.405Z,23.71
2023-05-13T12:21:17.430Z,23.66
2023-05-13T12:22:22.574Z,23.95
2023-05-13T12:23:24.052Z,24.04
2023-05-13T12:24:26.547Z,23.62
2023-05-13T12:25:43.801Z,24.58
2023-05-13T12:26:45.643Z,25.24
2023-05-13T12:27:52.674Z,25.35
2023-05-13T12:29:00.054Z,24.77
2023-05-13T12:30:02.672Z,24.74
2023-05-13T12:31:06.464Z,25.05
2023-05-13T12:32:08.772Z,24.81
2023-05-13T12:33:17.258Z,24.88
2023-05-13T12:34:30.696Z,24.10
2023-05-13T12:35:33.583Z,22.88
2023-05-13T12:36:37.569Z,22.91
2023-05-13T12:37:40.101Z,22.43
2023-05-13T12:38:54.380Z,21.57
2023-05-13T12:40:11.010Z,21.64
2023-05-13T12:41:13.819Z,22.01
2023-05-13T12:42:16.147Z,21.83
2023-05-13T12:43:20.466Z,21.26
2023-05-13T12:44:22.726Z,21.21
2023-05-13T12:45:29.191Z,21.47
2023-05-13T12:46:32.654Z,21.23
2023-05-13T12:47:48.911Z,21.17
2023-05-13T12:48:56.880Z,20.95
2023-05-13T12:49:59.072Z,21.17
2023-05-13T12:51:02.366Z,21.08
2023-05-13T12:52:04.950Z,21.08
2023-05-13T12:53:07.790Z,20.99
2023-05-13T12:54:10.624Z,20.85
2023-05-13T12:55:13.992Z,20.89
2023-05-13T12:56:15.556Z,20.74
2023-05-13T12:57:18.905Z,20.51
2023-05-13T12:58:20.470Z,20.46
2023-05-13T12:59:22.905Z,20.07
2023-05-13T13:00:25.001Z,20.19
2023-05-13T13:01:27.615Z,20.74
2023-05-13T13:02:29.312Z,21.06
2023-05-13T13:03:32.113Z,21.37
2023-05-13T13:04:35.037Z,21.82
2023-05-13T13:05:37.521Z,22.19
2023-05-13T13:06:39.054Z,22.40
2023-05-13T13:07:42.217Z,22.51
2023-05-13T13:08:43.811Z,21.45
2023-05-13T13:09:46.325Z,21.90
2023-05-13T13:10:47.892Z,21.62
2023-05-13T13:11:51.302Z,21.59
2023-05-13T13:12:52.841Z,21.91
2023-05-13T13:13:55.314Z,21.80
2023-05-13T13:14:57.653Z,20.63
2023-05-13T13:16:00.552Z,20.73
2023-05-13T13:17:02.094Z,20.66
2023-05-13T13:18:04.766Z,20.94
2023-05-13T13:19:06.346Z,21.21
2023-05-13T13:20:11.016Z,21.32
2023-05-13T13:21:12.565Z,21.90
2023-05-13T13:22:15.972Z,22.25
2023-05-13T13:23:18.928Z,22.18
2023-05-13T13:24:20.466Z,22.43
2023-05-13T13:25:23.143Z,21.97
2023-05-13T13:26:25.051Z,21.27
2023-05-13T13:27:27.535Z,21.08
2023-05-13T13:28:29.095Z,20.38
2023-05-13T13:29:31.596Z,20.56
2023-05-13T13:30:33.139Z,20.83
2023-05-13T13:31:35.596Z,20.50
2023-05-13T13:32:38.069Z,20.59
2023-05-13T13:33:39.639Z,20.59
2023-05-13T13:34:42.116Z,20.52
2023-05-13T13:35:48.201Z,20.43
2023-05-13T13:36:49.780Z,20.41
2023-05-13T13:37:54.229Z,20.87
2023-05-13T13:38:55.753Z,21.10
2023-05-13T13:39:58.250Z,21.00
2023-05-13T13:41:01.022Z,21.29
2023-05-13T13:42:04.656Z,20.92